createdAt,value
2017-03-19T00:04:45.734Z,1008.144
2017-03-19T00:07:39.928Z,1008.237
2017-03-19T00:10:34.074Z,1008.255
2017-03-19T00:19:16.396Z,1008.368
2017-03-19T00:22:10.430Z,1008.409
2017-03-19T00:25:04.429Z,1008.373
2017-03-19T00:27:58.543Z,1008.383
2017-03-19T00:30:52.705Z,1008.436
2017-03-19T00:33:46.849Z,1008.473
2017-03-19T00:36:41.172Z,1008.500
2017-03-19T00:42:29.466Z,1008.531
2017-03-19T00:48:18.117Z,1008.485
2017-03-19T00:51:12.257Z,1008.482
2017-03-19T00:57:00.845Z,1008.534
2017-03-19T01:05:43.954Z,1008.724
2017-03-19T01:08:37.967Z,1008.773
2017-03-19T01:11:32.230Z,1008.771
2017-03-19T01:14:26.372Z,1008.856
2017-03-19T01:17:20.587Z,1008.848
2017-03-19T01:23:09.003Z,1008.872
2017-03-19T01:26:03.233Z,1008.901
2017-03-19T01:31:51.493Z,1008.919
2017-03-19T01:34:45.707Z,1009.035
2017-03-19T01:37:39.806Z,1009.007
2017-03-19T01:40:33.875Z,1009.030
2017-03-19T01:43:27.994Z,1009.062
2017-03-19T01:46:22.093Z,1009.080
2017-03-19T01:49:16.266Z,1009.090
2017-03-19T01:55:04.712Z,1009.180
2017-03-19T01:57:58.812Z,1009.253
2017-03-19T02:03:47.289Z,1009.414
2017-03-19T02:06:41.391Z,1009.395
2017-03-19T02:09:35.690Z,1009.410
2017-03-19T02:12:29.840Z,1009.455
2017-03-19T02:15:24.115Z,1009.407
2017-03-19T02:18:18.362Z,1009.510
2017-03-19T02:21:12.763Z,1009.531
2017-03-19T02:27:01.245Z,1009.500
2017-03-19T02:32:49.725Z,1009.494
2017-03-19T02:35:43.936Z,1009.546
2017-03-19T02:41:32.402Z,1009.584
2017-03-19T02:47:20.768Z,1009.643
2017-03-19T02:56:03.100Z,1009.720
2017-03-19T02:58:57.242Z,1009.735
2017-03-19T03:10:33.869Z,1009.864
2017-03-19T03:13:27.563Z,1009.873
2017-03-19T03:16:21.092Z,1009.857
2017-03-19T03:19:14.511Z,1009.895
2017-03-19T03:25:01.576Z,1009.876
2017-03-19T03:27:55.053Z,1009.938
2017-03-19T03:30:48.558Z,1009.934
2017-03-19T03:33:42.035Z,1010.022
2017-03-19T03:39:29.325Z,1010.077
2017-03-19T03:42:23.275Z,1010.030
2017-03-19T03:45:17.023Z,1010.045
2017-03-19T03:51:04.559Z,1010.110
2017-03-19T03:53:58.257Z,1010.064
2017-03-19T03:56:52.000Z,1010.107
2017-03-19T03:59:45.740Z,1010.167
2017-03-19T04:02:40.078Z,1010.154
2017-03-19T04:05:33.816Z,1010.175
2017-03-19T04:08:27.996Z,1010.225
2017-03-19T04:25:49.431Z,1010.118
2017-03-19T04:28:42.788Z,1010.103
2017-03-19T04:31:36.729Z,1010.168
2017-03-19T04:37:24.027Z,1010.250
2017-03-19T04:40:17.475Z,1010.264
2017-03-19T04:43:10.883Z,1010.251
2017-03-19T04:46:04.169Z,1010.209
2017-03-19T04:48:57.656Z,1010.223
2017-03-19T04:51:51.112Z,1010.223
2017-03-19T04:57:37.804Z,1010.366
2017-03-19T05:00:31.301Z,1010.369
2017-03-19T05:03:24.692Z,1010.412
2017-03-19T05:06:18.111Z,1010.400
2017-03-19T05:09:11.559Z,1010.377
2017-03-19T05:17:51.727Z,1010.533
2017-03-19T05:23:38.250Z,1010.635
2017-03-19T05:26:31.509Z,1010.655
2017-03-19T05:32:17.756Z,1010.677
2017-03-19T05:35:10.902Z,1010.713
2017-03-19T05:38:04.270Z,1010.756
2017-03-19T05:40:57.543Z,1010.762
2017-03-19T05:43:50.883Z,1010.680
2017-03-19T05:46:43.977Z,1010.704
2017-03-19T05:49:37.017Z,1010.719
2017-03-19T05:52:30.123Z,1010.772
2017-03-19T05:55:22.964Z,1010.766
2017-03-19T06:01:09.456Z,1010.747
2017-03-19T06:04:02.959Z,1010.666
2017-03-19T06:12:43.590Z,1010.627
2017-03-19T06:15:37.429Z,1010.656
2017-03-19T06:18:30.707Z,1010.637
2017-03-19T06:21:24.055Z,1010.653
2017-03-19T06:24:18.158Z,1010.718
2017-03-19T06:27:12.477Z,1010.789
2017-03-19T06:30:06.742Z,1010.861
2017-03-19T06:33:00.930Z,1010.898
2017-03-19T06:38:49.911Z,1010.848
2017-03-19T06:41:44.464Z,1010.819
2017-03-19T06:44:39.042Z,1010.861
2017-03-19T06:47:33.442Z,1010.938
2017-03-19T06:50:27.982Z,1010.911
2017-03-19T06:53:22.628Z,1010.875
2017-03-19T06:56:17.152Z,1010.859
2017-03-19T06:59:11.703Z,1010.863
2017-03-19T07:02:06.377Z,1010.863
2017-03-19T07:05:00.916Z,1010.859
2017-03-19T07:07:55.525Z,1010.879
2017-03-19T07:10:50.095Z,1010.879
2017-03-19T07:13:44.742Z,1010.891
2017-03-19T07:16:39.250Z,1010.862
2017-03-19T07:19:33.746Z,1010.827
2017-03-19T07:22:28.351Z,1010.789
2017-03-19T07:25:22.946Z,1010.779
2017-03-19T07:28:17.569Z,1010.752
2017-03-19T07:31:12.090Z,1010.772
2017-03-19T07:34:06.682Z,1010.756
2017-03-19T07:42:50.457Z,1010.729
2017-03-19T07:48:39.640Z,1010.701
2017-03-19T07:51:34.234Z,1010.628
2017-03-19T07:54:28.829Z,1010.596
2017-03-19T07:57:23.391Z,1010.554
2017-03-19T08:00:17.819Z,1010.526
2017-03-19T08:03:12.384Z,1010.485
2017-03-19T08:06:07.193Z,1010.434
2017-03-19T08:09:01.613Z,1010.368
2017-03-19T08:11:56.251Z,1010.279
2017-03-19T08:14:50.898Z,1010.225
2017-03-19T08:17:45.440Z,1010.136
2017-03-19T08:20:40.130Z,1010.087
2017-03-19T08:23:34.823Z,1010.041
2017-03-19T08:26:29.444Z,1010.009
2017-03-19T08:41:02.254Z,1009.706
2017-03-19T08:46:51.644Z,1009.605
2017-03-19T08:52:41.158Z,1009.596
2017-03-19T08:55:35.825Z,1009.541
2017-03-19T08:58:31.134Z,1009.499
2017-03-19T09:01:25.906Z,1009.527
2017-03-19T09:07:15.320Z,1009.455
2017-03-19T09:10:10.053Z,1009.415
2017-03-19T09:13:04.848Z,1009.431
2017-03-19T09:15:59.421Z,1009.424
2017-03-19T09:18:54.143Z,1009.349
2017-03-19T09:21:48.805Z,1009.293
2017-03-19T09:24:43.547Z,1009.274
2017-03-19T09:27:38.286Z,1009.198
2017-03-19T09:33:28.292Z,1009.128
2017-03-19T09:36:22.996Z,1009.079
2017-03-19T09:39:17.720Z,1009.076
2017-03-19T09:45:06.943Z,1009.003
2017-03-19T09:48:01.617Z,1008.965
2017-03-19T09:50:56.106Z,1008.973
2017-03-19T09:53:50.746Z,1008.892
2017-03-19T09:56:45.376Z,1008.841
2017-03-19T09:59:40.040Z,1008.800
2017-03-19T10:05:29.096Z,1008.815
2017-03-19T10:08:23.736Z,1008.814
2017-03-19T10:14:12.947Z,1008.773
2017-03-19T10:17:07.496Z,1008.780
2017-03-19T10:20:02.036Z,1008.769
2017-03-19T10:28:45.534Z,1008.798
2017-03-19T10:34:34.520Z,1008.775
2017-03-19T10:37:28.921Z,1008.664
2017-03-19T10:40:23.451Z,1008.580
2017-03-19T10:46:12.571Z,1008.568
2017-03-19T10:49:07.101Z,1008.595
2017-03-19T10:52:01.523Z,1008.528
2017-03-19T10:54:55.936Z,1008.493
2017-03-19T11:00:44.898Z,1008.372
2017-03-19T11:03:39.501Z,1008.303
2017-03-19T11:06:34.009Z,1008.248
2017-03-19T11:12:23.144Z,1008.119
2017-03-19T11:15:17.768Z,1008.086
2017-03-19T11:18:12.304Z,1008.029
2017-03-19T11:24:01.218Z,1007.964
2017-03-19T11:32:44.521Z,1007.772
2017-03-19T11:35:38.942Z,1007.683
2017-03-19T11:38:33.347Z,1007.657
2017-03-19T11:47:17.030Z,1007.561
2017-03-19T11:50:11.555Z,1007.533
2017-03-19T11:53:06.040Z,1007.494
2017-03-19T11:56:00.293Z,1007.366
2017-03-19T11:58:54.805Z,1007.353
2017-03-19T12:04:43.630Z,1007.294
2017-03-19T12:07:37.892Z,1007.247
2017-03-19T12:10:32.120Z,1007.153
2017-03-19T12:16:20.692Z,1007.009
2017-03-19T12:19:14.871Z,1007.002
2017-03-19T12:22:09.652Z,1006.891
2017-03-19T12:25:03.343Z,1006.764
2017-03-19T12:27:57.428Z,1006.636
2017-03-19T12:30:51.552Z,1006.538
2017-03-19T12:36:39.726Z,1006.332
2017-03-19T12:39:33.807Z,1006.187
2017-03-19T12:42:27.951Z,1006.085
2017-03-19T12:45:21.933Z,1006.122
2017-03-19T12:48:15.988Z,1006.202
2017-03-19T13:05:40.153Z,1005.979
2017-03-19T13:08:34.002Z,1005.938
2017-03-19T13:14:22.329Z,1005.837
2017-03-19T13:20:10.283Z,1005.784
2017-03-19T13:23:04.152Z,1005.776
2017-03-19T13:25:57.900Z,1005.912
2017-03-19T13:34:39.247Z,1005.842
2017-03-19T13:37:32.764Z,1005.734
2017-03-19T13:43:19.906Z,1005.500
2017-03-19T13:46:13.548Z,1005.563
2017-03-19T13:52:00.567Z,1005.695
2017-03-19T14:00:40.386Z,1005.350
2017-03-19T14:03:33.752Z,1005.282
2017-03-19T14:09:20.680Z,1005.285
2017-03-19T14:12:14.596Z,1005.183
2017-03-19T14:15:08.525Z,1005.128
2017-03-19T14:18:02.745Z,1004.997
2017-03-19T14:20:56.570Z,1004.924
2017-03-19T14:23:50.443Z,1004.924
2017-03-19T14:29:38.365Z,1004.890
2017-03-19T14:35:26.183Z,1004.630
2017-03-19T14:38:20.098Z,1004.567
2017-03-19T14:44:08.092Z,1004.766
2017-03-19T14:47:01.804Z,1004.617
2017-03-19T14:52:49.363Z,1004.561
2017-03-19T14:58:36.949Z,1004.567
2017-03-19T15:01:30.765Z,1004.556
2017-03-19T15:04:24.731Z,1004.537
2017-03-19T15:07:18.301Z,1004.537
2017-03-19T15:18:52.137Z,1004.453
2017-03-19T15:21:45.555Z,1004.479
2017-03-19T15:27:33.170Z,1004.520
2017-03-19T15:30:26.940Z,1004.386
2017-03-19T15:33:20.526Z,1004.241
2017-03-19T15:36:14.118Z,1004.223
2017-03-19T15:39:07.475Z,1004.160
2017-03-19T15:42:01.354Z,1004.116
2017-03-19T15:44:54.750Z,1004.020
2017-03-19T15:47:48.088Z,1003.957
2017-03-19T15:53:34.749Z,1003.853
2017-03-19T15:56:28.193Z,1003.779
2017-03-19T15:59:21.797Z,1003.753
2017-03-19T16:02:15.318Z,1003.684
2017-03-19T16:05:08.786Z,1003.636
2017-03-19T16:08:02.196Z,1003.603
2017-03-19T16:22:28.822Z,1003.433
2017-03-19T16:25:22.036Z,1003.319
2017-03-19T16:28:15.024Z,1003.302
2017-03-19T16:31:08.025Z,1003.287
2017-03-19T16:34:01.397Z,1003.281
2017-03-19T16:36:54.491Z,1003.239
2017-03-19T16:39:47.646Z,1003.225
2017-03-19T16:42:40.259Z,1003.222
2017-03-19T16:48:26.904Z,1003.215
2017-03-19T16:51:19.693Z,1003.121
2017-03-19T16:54:13.318Z,1003.102
2017-03-19T16:57:06.610Z,1003.134
2017-03-19T17:02:54.070Z,1003.114
2017-03-19T17:05:47.511Z,1003.042
2017-03-19T17:08:40.853Z,1002.975
2017-03-19T17:11:34.560Z,1002.953
2017-03-19T17:14:28.141Z,1002.958
2017-03-19T17:20:16.536Z,1002.769
2017-03-19T17:23:10.929Z,1002.767
2017-03-19T17:26:05.273Z,1002.710
2017-03-19T17:28:59.551Z,1002.658
2017-03-19T17:40:36.806Z,1002.809
2017-03-19T17:46:25.280Z,1002.824
2017-03-19T17:49:19.473Z,1002.755
2017-03-19T17:58:01.853Z,1002.570
2017-03-19T18:00:55.958Z,1002.626
2017-03-19T18:03:49.935Z,1002.641
2017-03-19T18:06:43.812Z,1002.632
2017-03-19T18:12:31.788Z,1002.499
2017-03-19T18:15:25.914Z,1002.621
2017-03-19T18:18:19.326Z,1002.612
2017-03-19T18:21:12.525Z,1002.614
2017-03-19T18:24:05.888Z,1002.590
2017-03-19T18:26:58.588Z,1002.591
2017-03-19T18:29:52.469Z,1002.551
2017-03-19T18:32:46.566Z,1002.506
2017-03-19T18:38:35.123Z,1002.472
2017-03-19T18:53:06.024Z,1002.283
2017-03-19T18:56:00.042Z,1002.258
2017-03-19T18:58:54.020Z,1002.295
2017-03-19T19:01:47.939Z,1002.243
2017-03-19T19:10:29.784Z,1002.394
2017-03-19T19:13:23.191Z,1002.114
2017-03-19T19:16:17.043Z,1002.170
2017-03-19T19:19:10.883Z,1002.176
2017-03-19T19:22:04.543Z,1002.210
2017-03-19T19:27:52.867Z,1002.197
2017-03-19T19:30:47.115Z,1002.210
2017-03-19T19:33:41.339Z,1002.283
2017-03-19T19:36:35.543Z,1002.230
2017-03-19T19:42:23.863Z,1002.223
2017-03-19T19:45:17.424Z,1002.181
2017-03-19T19:48:12.076Z,1002.194
2017-03-19T19:54:01.441Z,1002.202
2017-03-19T19:56:55.899Z,1002.181
2017-03-19T19:59:50.205Z,1002.143
2017-03-19T20:02:44.423Z,1002.098
2017-03-19T20:08:32.441Z,1002.069
2017-03-19T20:11:26.320Z,1001.996
2017-03-19T20:14:20.303Z,1001.974
2017-03-19T20:17:13.766Z,1001.987
2017-03-19T20:20:07.858Z,1001.926
2017-03-19T20:25:56.775Z,1001.971
2017-03-19T20:28:51.265Z,1001.859
2017-03-19T20:31:45.655Z,1001.985
2017-03-19T20:37:35.213Z,1001.936
2017-03-19T20:40:29.506Z,1001.928
2017-03-19T20:43:23.531Z,1001.880
2017-03-19T20:46:18.386Z,1001.868
2017-03-19T20:49:13.333Z,1001.885
2017-03-19T20:52:08.234Z,1001.886
2017-03-19T20:55:03.196Z,1001.910
2017-03-19T20:57:58.331Z,1001.940
2017-03-19T21:06:43.005Z,1001.985
2017-03-19T21:12:32.929Z,1001.908
2017-03-19T21:15:27.692Z,1001.967
2017-03-19T21:18:22.587Z,1001.936
2017-03-19T21:21:17.382Z,1001.989
2017-03-19T21:24:12.137Z,1002.008
2017-03-19T21:27:06.921Z,1001.996
2017-03-19T21:30:01.677Z,1002.069
2017-03-19T21:32:56.407Z,1002.134
2017-03-19T21:35:50.858Z,1002.132
2017-03-19T21:38:45.074Z,1002.233
2017-03-19T21:44:32.779Z,1002.151
2017-03-19T21:47:26.467Z,1002.165
2017-03-19T21:50:21.162Z,1002.268
2017-03-19T21:53:15.891Z,1002.290
2017-03-19T21:56:10.726Z,1002.292
2017-03-19T21:59:05.422Z,1002.156
2017-03-19T22:04:54.593Z,1002.176
2017-03-19T22:07:48.763Z,1002.264
2017-03-19T22:10:42.197Z,1002.305
2017-03-19T22:13:35.809Z,1002.244
2017-03-19T22:16:29.652Z,1002.296
2017-03-19T22:19:23.331Z,1002.367
2017-03-19T22:22:16.814Z,1002.401
2017-03-19T22:25:10.924Z,1002.375
2017-03-19T22:28:05.282Z,1002.396
2017-03-19T22:30:59.450Z,1002.433
2017-03-19T22:33:53.358Z,1002.464
2017-03-19T22:36:46.972Z,1002.458
2017-03-19T22:42:36.057Z,1002.496
2017-03-19T22:45:30.456Z,1002.584
2017-03-19T22:48:24.775Z,1002.580
2017-03-19T22:51:19.129Z,1002.528
2017-03-19T22:54:12.609Z,1002.581
2017-03-19T22:57:07.141Z,1002.655
2017-03-19T23:00:00.735Z,1002.686
2017-03-19T23:02:55.448Z,1002.715
2017-03-19T23:08:45.116Z,1002.823
2017-03-19T23:11:40.077Z,1002.847
2017-03-19T23:14:34.857Z,1002.826
2017-03-19T23:17:29.390Z,1002.826
2017-03-19T23:20:23.737Z,1002.845
2017-03-19T23:26:11.487Z,1002.976
2017-03-19T23:29:05.385Z,1002.980
2017-03-19T23:31:58.815Z,1003.030
2017-03-19T23:34:52.951Z,1003.041
2017-03-19T23:37:46.763Z,1003.013
2017-03-19T23:40:40.888Z,1003.083
2017-03-19T23:43:34.862Z,1003.129
2017-03-19T23:46:28.808Z,1003.105
2017-03-19T23:49:22.514Z,1003.125
2017-03-19T23:52:16.240Z,1003.168
2017-03-19T23:55:09.677Z,1003.153
2017-03-19T23:58:03.309Z,1003.244
